Time,TemperatureF,DewpointF,PressureIn,WindDirection,WindDirectionDegrees,WindSpeedMPH,WindSpeedGustMPH,Humidity,HourlyPrecipIn,Conditions,Clouds,dailyrainin,SoftwareType,DateUTC
2013-05-07 00:05:00,58.4,52.3,30.05,ESE,110,0.0,0.0,80,0.00,,,0.00,Wunderground v.1.15,2013-05-07 05:05:00,
2013-05-07 00:10:00,58.3,52.2,30.05,ESE,110,0.0,0.0,80,0.00,,,0.00,Wunderground v.1.15,2013-05-07 05:10:00,
2013-05-07 00:20:00,58.1,52.6,30.05,ESE,110,0.0,0.0,82,0.00,,,0.00,Wunderground v.1.15,2013-05-07 05:20:00,
2013-05-07 00:30:00,58.3,52.5,30.06,ESE,110,0.0,0.0,81,0.00,,,0.00,Wunderground v.1.15,2013-05-07 05:30:00,
2013-05-07 00:39:00,58.5,52.4,30.05,ESE,110,0.0,0.0,80,0.00,,,0.00,Wunderground v.1.15,2013-05-07 05:39:00,
2013-05-07 00:45:00,58.4,52.3,30.05,ESE,103,0.0,0.0,80,0.00,,,0.00,Wunderground v.1.15,2013-05-07 05:45:00,
2013-05-07 00:55:00,59.2,52.7,30.05,ESE,103,1.0,1.0,79,0.00,,,0.00,Wunderground v.1.15,2013-05-07 05:55:00,
2013-05-07 01:05:00,59.1,52.2,30.06,ESE,103,0.0,0.0,78,0.00,,,0.00,Wunderground v.1.15,2013-05-07 06:05:00,
2013-05-07 01:15:00,58.1,52.3,30.06,ESE,105,1.0,1.0,81,0.00,,,0.00,Wunderground v.1.15,2013-05-07 06:15:00,
2013-05-07 01:25:00,56.8,51.7,30.06,WNW,284,0.0,1.0,83,0.00,,,0.00,Wunderground v.1.15,2013-05-07 06:25:00,
2013-05-07 01:35:00,55.9,51.1,30.06,WNW,283,0.0,0.0,84,0.00,,,0.00,Wunderground v.1.15,2013-05-07 06:35:00,
2013-05-07 01:45:00,55.2,51.1,30.06,WNW,284,0.0,0.0,86,0.00,,,0.00,Wunderground v.1.15,2013-05-07 06:45:00,
2013-05-07 01:55:00,54.7,50.9,30.07,WNW,284,0.0,0.0,87,0.00,,,0.00,Wunderground v.1.15,2013-05-07 06:55:00,
2013-05-07 02:05:00,54.3,50.8,30.06,WNW,284,0.0,0.0,88,0.00,,,0.00,Wunderground v.1.15,2013-05-07 07:05:00,
2013-05-07 02:15:00,54.3,51.1,30.06,WNW,284,0.0,0.0,89,0.00,,,0.00,Wunderground v.1.15,2013-05-07 07:15:00,
2013-05-07 02:24:00,54.5,51.3,30.05,WNW,284,0.0,0.0,89,0.00,,,0.00,Wunderground v.1.15,2013-05-07 07:24:00,
2013-05-07 02:30:00,54.4,51.2,30.05,WNW,284,0.0,0.0,89,0.00,,,0.00,Wunderground v.1.15,2013-05-07 07:30:00,
2013-05-07 02:39:00,54.3,51.1,30.05,WNW,284,0.0,0.0,89,0.00,,,0.00,Wunderground v.1.15,2013-05-07 07:39:00,
2013-05-07 02:45:00,54.3,51.1,30.05,WNW,284,0.0,0.0,89,0.00,,,0.00,Wunderground v.1.15,2013-05-07 07:45:00,
2013-05-07 02:55:00,54.1,51.2,30.05,WNW,284,0.0,0.0,90,0.00,,,0.00,Wunderground v.1.15,2013-05-07 07:55:00,
2013-05-07 03:05:00,53.8,50.9,30.05,WNW,284,0.0,0.0,90,0.00,,,0.00,Wunderground v.1.15,2013-05-07 08:05:00,
2013-05-07 03:15:00,53.6,51.0,30.05,WNW,284,0.0,0.0,91,0.00,,,0.00,Wunderground v.1.15,2013-05-07 08:15:00,
2013-05-07 03:20:00,53.6,51.0,30.05,WNW,284,0.0,0.0,91,0.00,,,0.00,Wunderground v.1.15,2013-05-07 08:20:00,
2013-05-07 03:30:00,53.2,50.6,30.05,WNW,284,0.0,0.0,91,0.00,,,0.00,Wunderground v.1.15,2013-05-07 08:30:00,
2013-05-07 03:40:00,53.0,50.4,30.05,WNW,284,0.0,0.0,91,0.00,,,0.00,Wunderground v.1.15,2013-05-07 08:40:00,
2013-05-07 03:50:00,52.9,50.6,30.05,WNW,284,0.0,0.0,92,0.00,,,0.00,Wunderground v.1.15,2013-05-07 08:50:00,
2013-05-07 04:00:00,52.9,50.6,30.05,WNW,284,0.0,0.0,92,0.00,,,0.00,Wunderground v.1.15,2013-05-07 09:00:00,
2013-05-07 04:10:00,52.7,50.4,30.05,WNW,284,0.0,0.0,92,0.00,,,0.00,Wunderground v.1.15,2013-05-07 09:10:00,
2013-05-07 04:19:00,52.7,50.7,30.05,WNW,284,0.0,0.0,93,0.00,,,0.00,Wunderground v.1.15,2013-05-07 09:19:00,
2013-05-07 04:25:00,52.6,50.6,30.05,WNW,284,0.0,0.0,93,0.00,,,0.00,Wunderground v.1.15,2013-05-07 09:25:00,
2013-05-07 04:35:00,52.7,51.0,30.05,WNW,284,0.0,0.0,94,0.00,,,0.00,Wunderground v.1.15,2013-05-07 09:35:00,
2013-05-07 04:45:00,52.5,50.5,30.05,WNW,284,0.0,0.0,93,0.00,,,0.00,Wunderground v.1.15,2013-05-07 09:45:00,
2013-05-07 04:55:00,52.2,50.5,30.05,WNW,284,0.0,0.0,94,0.00,,,0.00,Wunderground v.1.15,2013-05-07 09:55:00,
2013-05-07 05:00:00,52.2,50.5,30.05,WNW,284,0.0,0.0,94,0.00,,,0.00,Wunderground v.1.15,2013-05-07 10:00:00,
2013-05-07 05:10:00,52.5,50.8,30.05,WNW,284,0.0,0.0,94,0.00,,,0.00,Wunderground v.1.15,2013-05-07 10:10:00,
2013-05-07 05:20:00,52.8,51.4,30.05,WNW,284,0.0,0.0,95,0.00,,,0.00,Wunderground v.1.15,2013-05-07 10:20:00,
2013-05-07 05:30:00,52.4,50.7,30.05,WNW,284,0.0,0.0,94,0.00,,,0.00,Wunderground v.1.15,2013-05-07 10:30:00,
2013-05-07 05:40:00,52.2,50.5,30.06,WNW,284,0.0,0.0,94,0.00,,,0.00,Wunderground v.1.15,2013-05-07 10:40:00,
2013-05-07 05:50:00,52.4,51.0,30.06,WNW,284,0.0,0.0,95,0.00,,,0.00,Wunderground v.1.15,2013-05-07 10:50:00,
2013-05-07 06:00:00,52.5,51.1,30.06,WNW,284,0.0,0.0,95,0.00,,,0.00,Wunderground v.1.15,2013-05-07 11:00:00,
2013-05-07 06:10:00,52.4,51.0,30.06,WNW,284,0.0,0.0,95,0.00,,,0.00,Wunderground v.1.15,2013-05-07 11:10:00,
2013-05-07 06:20:00,52.2,50.5,30.06,WNW,284,0.0,0.0,94,0.00,,,0.00,Wunderground v.1.15,2013-05-07 11:20:00,
2013-05-07 06:29:00,51.8,50.1,30.06,WNW,284,0.0,0.0,94,0.00,,,0.00,Wunderground v.1.15,2013-05-07 11:29:00,
2013-05-07 06:40:00,51.6,50.2,30.07,WNW,284,0.0,0.0,95,0.00,,,0.00,Wunderground v.1.15,2013-05-07 11:40:00,
2013-05-07 06:49:00,52.1,51.0,30.08,WNW,284,0.0,0.0,96,0.00,,,0.00,Wunderground v.1.15,2013-05-07 11:49:00,
2013-05-07 06:55:00,52.5,51.4,30.08,WNW,284,0.0,0.0,96,0.00,,,0.00,Wunderground v.1.15,2013-05-07 11:55:00,
2013-05-07 07:05:00,52.7,51.3,30.09,WNW,284,0.0,0.0,95,0.00,,,0.00,Wunderground v.1.15,2013-05-07 12:05:00,
2013-05-07 07:15:00,52.2,50.8,30.08,WNW,284,0.0,0.0,95,0.00,,,0.00,Wunderground v.1.15,2013-05-07 12:15:00,
2013-05-07 07:25:00,52.5,51.4,30.08,WNW,284,0.0,0.0,96,0.00,,,0.00,Wunderground v.1.15,2013-05-07 12:25:00,
2013-05-07 07:35:00,52.6,51.5,30.08,WNW,284,0.0,0.0,96,0.00,,,0.00,Wunderground v.1.15,2013-05-07 12:35:00,
2013-05-07 07:44:00,53.1,52.0,30.09,WNW,284,0.0,0.0,96,0.00,,,0.00,Wunderground v.1.15,2013-05-07 12:44:00,
2013-05-07 07:50:00,53.5,52.4,30.09,WNW,283,0.0,0.0,96,0.00,,,0.00,Wunderground v.1.15,2013-05-07 12:50:00,
2013-05-07 07:59:00,54.2,53.1,30.09,WNW,284,0.0,0.0,96,0.00,,,0.00,Wunderground v.1.15,2013-05-07 12:59:00,
2013-05-07 08:05:00,54.8,54.0,30.09,WNW,284,0.0,0.0,97,0.00,,,0.00,Wunderground v.1.15,2013-05-07 13:05:00,
2013-05-07 08:15:00,56.2,55.4,30.09,WNW,284,0.0,0.0,97,0.00,,,0.00,Wunderground v.1.15,2013-05-07 13:15:00,
2013-05-07 08:25:00,57.0,56.2,30.09,WNW,284,0.0,0.0,97,0.00,,,0.00,Wunderground v.1.15,2013-05-07 13:25:00,
2013-05-07 08:34:00,58.2,57.6,30.10,WNW,283,0.0,0.0,98,0.00,,,0.00,Wunderground v.1.15,2013-05-07 13:34:00,
2013-05-07 08:40:00,58.9,58.3,30.10,WNW,284,0.0,1.0,98,0.00,,,0.00,Wunderground v.1.15,2013-05-07 13:40:00,
2013-05-07 08:50:00,60.3,59.7,30.10,West,277,0.0,0.0,98,0.00,,,0.00,Wunderground v.1.15,2013-05-07 13:50:00,
2013-05-07 09:00:00,61.9,60.5,30.10,SSW,205,0.0,0.0,95,0.00,,,0.00,Wunderground v.1.15,2013-05-07 14:00:00,
2013-05-07 09:10:00,63.5,60.5,30.10,WNW,295,1.0,1.0,90,0.00,,,0.00,Wunderground v.1.15,2013-05-07 14:10:00,
2013-05-07 09:20:00,64.7,60.7,30.10,SSW,195,0.0,0.0,87,0.00,,,0.00,Wunderground v.1.15,2013-05-07 14:20:00,
2013-05-07 09:29:00,65.7,61.4,30.11,WSW,252,0.0,1.0,86,0.00,,,0.00,Wunderground v.1.15,2013-05-07 14:29:00,
2013-05-07 09:35:00,66.2,61.6,30.11,SSE,165,0.0,1.0,85,0.00,,,0.00,Wunderground v.1.15,2013-05-07 14:35:00,
2013-05-07 09:45:00,67.0,61.0,30.10,SW,221,0.0,1.0,81,0.00,,,0.00,Wunderground v.1.15,2013-05-07 14:45:00,
2013-05-07 09:50:00,67.5,61.1,30.10,SSE,166,0.0,0.0,80,0.00,,,0.00,Wunderground v.1.15,2013-05-07 14:50:00,
2013-05-07 10:00:00,68.6,60.7,30.11,SW,219,0.0,2.0,76,0.00,,,0.00,Wunderground v.1.15,2013-05-07 15:00:00,
2013-05-07 10:10:00,69.4,61.1,30.10,ESE,107,0.0,1.0,75,0.00,,,0.00,Wunderground v.1.15,2013-05-07 15:10:00,
2013-05-07 10:19:00,70.1,59.9,30.10,NNE,19,1.0,1.0,70,0.00,,,0.00,Wunderground v.1.15,2013-05-07 15:19:00,
2013-05-07 10:25:00,70.3,59.6,30.10,WNW,282,1.0,3.0,69,0.00,,,0.00,Wunderground v.1.15,2013-05-07 15:25:00,
2013-05-07 10:35:00,70.9,59.8,30.10,NE,39,1.0,1.0,68,0.00,,,0.00,Wunderground v.1.15,2013-05-07 15:35:00,
2013-05-07 10:45:00,71.7,60.2,30.10,SSE,152,1.0,2.0,67,0.00,,,0.00,Wunderground v.1.15,2013-05-07 15:45:00,
2013-05-07 10:55:00,71.9,59.5,30.09,SE,145,2.0,2.0,65,0.00,,,0.00,Wunderground v.1.15,2013-05-07 15:55:00,
2013-05-07 11:05:00,72.9,59.6,30.09,West,269,1.0,1.0,63,0.00,,,0.00,Wunderground v.1.15,2013-05-07 16:05:00,
2013-05-07 11:14:00,73.7,58.9,30.09,East,98,1.0,2.0,60,0.00,,,0.00,Wunderground v.1.15,2013-05-07 16:14:00,
2013-05-07 11:20:00,73.9,60.1,30.09,East,82,2.0,2.0,62,0.00,,,0.00,Wunderground v.1.15,2013-05-07 16:20:00,
2013-05-07 11:30:00,74.8,61.4,30.09,SE,132,1.0,1.0,63,0.00,,,0.00,Wunderground v.1.15,2013-05-07 16:30:00,
2013-05-07 11:40:00,75.5,58.7,30.09,ESE,115,2.0,2.0,56,0.00,,,0.00,Wunderground v.1.15,2013-05-07 16:40:00,
2013-05-07 11:49:00,76.1,58.2,30.08,WNW,293,1.0,1.0,54,0.00,,,0.00,Wunderground v.1.15,2013-05-07 16:49:00,
2013-05-07 11:55:00,76.5,60.1,30.08,SE,139,1.0,1.0,57,0.00,,,0.00,Wunderground v.1.15,2013-05-07 16:55:00,
2013-05-07 12:04:00,77.3,59.4,30.08,ESE,117,2.0,2.0,54,0.00,,,0.00,Wunderground v.1.15,2013-05-07 17:04:00,
2013-05-07 12:10:00,77.3,59.4,30.08,East,95,2.0,2.0,54,0.00,,,0.00,Wunderground v.1.15,2013-05-07 17:10:00,
2013-05-07 12:20:00,77.7,59.7,30.08,ESE,122,2.0,2.0,54,0.00,,,0.00,Wunderground v.1.15,2013-05-07 17:20:00,
2013-05-07 12:30:00,78.6,59.0,30.08,West,271,2.0,6.0,51,0.00,,,0.00,Wunderground v.1.15,2013-05-07 17:30:00,
2013-05-07 12:40:00,79.1,59.4,30.08,West,274,2.0,2.0,51,0.00,,,0.00,Wunderground v.1.15,2013-05-07 17:40:00,
2013-05-07 12:45:00,79.2,58.4,30.07,WNW,285,2.0,3.0,49,0.00,,,0.00,Wunderground v.1.15,2013-05-07 17:45:00,
2013-05-07 12:55:00,79.6,58.8,30.07,East,86,2.0,2.0,49,0.00,,,0.00,Wunderground v.1.15,2013-05-07 17:55:00,
2013-05-07 13:05:00,79.8,60.1,30.07,SSW,203,2.0,2.0,51,0.00,,,0.00,Wunderground v.1.15,2013-05-07 18:05:00,
2013-05-07 13:15:00,80.8,59.3,30.06,WNW,288,2.0,5.0,48,0.00,,,0.00,Wunderground v.1.15,2013-05-07 18:15:00,
2013-05-07 13:25:00,81.5,58.7,30.06,SE,135,1.0,2.0,46,0.00,,,0.00,Wunderground v.1.15,2013-05-07 18:25:00,
2013-05-07 13:34:00,81.8,60.2,30.05,SW,223,1.0,2.0,48,0.00,,,0.00,Wunderground v.1.15,2013-05-07 18:34:00,
2013-05-07 13:40:00,81.8,59.0,30.05,West,274,2.0,2.0,46,0.00,,,0.00,Wunderground v.1.15,2013-05-07 18:40:00,
2013-05-07 13:50:00,81.6,59.4,30.05,West,277,2.0,2.0,47,0.00,,,0.00,Wunderground v.1.15,2013-05-07 18:50:00,
2013-05-07 14:00:00,82.8,58.7,30.04,WNW,291,1.0,2.0,44,0.00,,,0.00,Wunderground v.1.15,2013-05-07 19:00:00,
2013-05-07 14:10:00,83.2,59.0,30.04,ESE,117,1.0,3.0,44,0.00,,,0.00,Wunderground v.1.15,2013-05-07 19:10:00,
2013-05-07 14:20:00,83.8,60.8,30.03,WNW,302,1.0,1.0,46,0.00,,,0.00,Wunderground v.1.15,2013-05-07 19:20:00,
2013-05-07 14:30:00,84.1,59.2,30.03,ESE,117,1.0,1.0,43,0.00,,,0.00,Wunderground v.1.15,2013-05-07 19:30:00,
2013-05-07 14:35:00,84.5,59.5,30.03,West,277,1.0,2.0,43,0.00,,,0.00,Wunderground v.1.15,2013-05-07 19:35:00,
2013-05-07 14:45:00,85.0,60.6,30.02,East,94,1.0,2.0,44,0.00,,,0.00,Wunderground v.1.15,2013-05-07 19:45:00,
2013-05-07 14:55:00,85.5,56.3,30.01,SE,138,1.0,2.0,37,0.00,,,0.00,Wunderground v.1.15,2013-05-07 19:55:00,
2013-05-07 15:04:00,85.0,59.3,30.01,ESE,110,1.0,1.0,42,0.00,,,0.00,Wunderground v.1.15,2013-05-07 20:04:00,
2013-05-07 15:15:00,85.6,58.5,30.00,WSW,252,1.0,2.0,40,0.00,,,0.00,Wunderground v.1.15,2013-05-07 20:15:00,
2013-05-07 15:25:00,85.9,58.1,30.00,East,91,2.0,2.0,39,0.00,,,0.00,Wunderground v.1.15,2013-05-07 20:25:00,
2013-05-07 15:30:00,86.3,59.1,30.00,SSE,155,1.0,1.0,40,0.00,,,0.00,Wunderground v.1.15,2013-05-07 20:30:00,
2013-05-07 15:40:00,86.9,56.7,29.99,WNW,283,1.0,6.0,36,0.00,,,0.00,Wunderground v.1.15,2013-05-07 20:40:00,
2013-05-07 15:49:00,87.0,56.8,29.99,West,276,1.0,2.0,36,0.00,,,0.00,Wunderground v.1.15,2013-05-07 20:49:00,
2013-05-07 15:55:00,87.2,57.0,29.99,ENE,77,1.0,2.0,36,0.00,,,0.00,Wunderground v.1.15,2013-05-07 20:55:00,
2013-05-07 16:04:00,86.7,55.0,29.99,East,88,2.0,4.0,34,0.00,,,0.00,Wunderground v.1.15,2013-05-07 21:04:00,
2013-05-07 16:10:00,85.9,56.6,29.98,SE,131,2.0,2.0,37,0.00,,,0.00,Wunderground v.1.15,2013-05-07 21:10:00,
2013-05-07 16:30:00,87.0,54.4,29.97,ESE,113,2.0,2.0,33,0.00,,,0.00,Wunderground v.1.15,2013-05-07 21:30:00,
2013-05-07 16:40:00,86.9,56.7,29.97,NNW,338,1.0,1.0,36,0.00,,,0.00,Wunderground v.1.15,2013-05-07 21:40:00,
2013-05-07 16:50:00,87.5,54.9,29.97,WSW,251,1.0,1.0,33,0.00,,,0.00,Wunderground v.1.15,2013-05-07 21:50:00,
2013-05-07 16:55:00,87.2,54.6,29.97,East,94,1.0,2.0,33,0.00,,,0.00,Wunderground v.1.15,2013-05-07 21:55:00,
2013-05-07 17:05:00,87.1,53.7,29.97,ESE,110,1.0,1.0,32,0.00,,,0.00,Wunderground v.1.15,2013-05-07 22:05:00,
2013-05-07 17:15:00,87.0,54.4,29.96,West,269,2.0,3.0,33,0.00,,,0.00,Wunderground v.1.15,2013-05-07 22:15:00,
2013-05-07 17:25:00,86.5,54.8,29.96,WNW,298,1.0,2.0,34,0.00,,,0.00,Wunderground v.1.15,2013-05-07 22:25:00,
2013-05-07 17:35:00,86.6,57.2,29.96,WNW,298,1.0,1.0,37,0.00,,,0.00,Wunderground v.1.15,2013-05-07 22:35:00,
2013-05-07 17:45:00,85.9,55.1,29.96,ESE,120,1.0,2.0,35,0.00,,,0.00,Wunderground v.1.15,2013-05-07 22:45:00,
2013-05-07 17:50:00,85.5,55.5,29.96,SE,146,1.0,1.0,36,0.00,,,0.00,Wunderground v.1.15,2013-05-07 22:50:00,
2013-05-07 18:00:00,84.5,55.4,29.96,West,269,1.0,1.0,37,0.00,,,0.00,Wunderground v.1.15,2013-05-07 23:00:00,
2013-05-07 18:09:00,84.3,55.9,29.95,ESE,123,1.0,1.0,38,0.00,,,0.00,Wunderground v.1.15,2013-05-07 23:09:00,
2013-05-07 18:15:00,83.9,54.1,29.95,ESE,105,1.0,2.0,36,0.00,,,0.00,Wunderground v.1.15,2013-05-07 23:15:00,
2013-05-07 18:25:00,82.4,54.2,29.94,ESE,109,1.0,3.0,38,0.00,,,0.00,Wunderground v.1.15,2013-05-07 23:25:00,
2013-05-07 18:35:00,81.8,55.8,29.94,SE,132,1.0,1.0,41,0.00,,,0.00,Wunderground v.1.15,2013-05-07 23:35:00,
2013-05-07 18:45:00,81.6,55.6,29.94,ENE,68,1.0,2.0,41,0.00,,,0.00,Wunderground v.1.15,2013-05-07 23:45:00,
2013-05-07 19:00:00,81.8,54.4,29.94,SE,124,1.0,2.0,39,0.00,,,0.00,Wunderground v.1.15,2013-05-08 00:00:00,
2013-05-07 19:10:00,81.8,55.1,29.93,ESE,105,1.0,1.0,40,0.00,,,0.00,Wunderground v.1.15,2013-05-08 00:10:00,
2013-05-07 19:20:00,81.7,55.0,29.94,SE,138,1.0,1.0,40,0.00,,,0.00,Wunderground v.1.15,2013-05-08 00:20:00,
2013-05-07 19:30:00,81.8,55.1,29.94,SE,140,1.0,3.0,40,0.00,,,0.00,Wunderground v.1.15,2013-05-08 00:30:00,
2013-05-07 19:40:00,81.4,54.8,29.94,ESE,118,1.0,1.0,40,0.00,,,0.00,Wunderground v.1.15,2013-05-08 00:40:00,
2013-05-07 19:50:00,80.6,55.4,29.94,SSE,148,1.0,1.0,42,0.00,,,0.00,Wunderground v.1.15,2013-05-08 00:50:00,
2013-05-07 19:59:00,79.6,54.5,29.94,SE,141,0.0,1.0,42,0.00,,,0.00,Wunderground v.1.15,2013-05-08 00:59:00,
2013-05-07 20:05:00,78.9,55.8,29.94,ESE,122,1.0,1.0,45,0.00,,,0.00,Wunderground v.1.15,2013-05-08 01:05:00,
2013-05-07 20:15:00,77.6,55.8,29.94,ESE,123,0.0,1.0,47,0.00,,,0.00,Wunderground v.1.15,2013-05-08 01:15:00,
2013-05-07 20:25:00,76.1,55.0,29.95,ESE,122,0.0,0.0,48,0.00,,,0.00,Wunderground v.1.15,2013-05-08 01:25:00,
2013-05-07 20:34:00,74.9,55.6,29.95,ESE,123,0.0,0.0,51,0.00,,,0.00,Wunderground v.1.15,2013-05-08 01:34:00,
2013-05-07 20:40:00,74.3,55.5,29.95,ESE,123,0.0,0.0,52,0.00,,,0.00,Wunderground v.1.15,2013-05-08 01:40:00,
2013-05-07 20:50:00,73.3,55.1,29.96,ESE,123,0.0,0.0,53,0.00,,,0.00,Wunderground v.1.15,2013-05-08 01:50:00,
2013-05-07 21:00:00,72.5,55.4,29.96,ESE,122,0.0,0.0,55,0.00,,,0.00,Wunderground v.1.15,2013-05-08 02:00:00,
2013-05-07 21:09:00,71.9,55.8,29.96,ESE,122,0.0,0.0,57,0.00,,,0.00,Wunderground v.1.15,2013-05-08 02:09:00,
2013-05-07 21:15:00,71.6,55.6,29.96,ESE,123,0.0,0.0,57,0.00,,,0.00,Wunderground v.1.15,2013-05-08 02:15:00,
2013-05-07 21:25:00,71.0,55.9,29.96,ESE,121,0.0,0.0,59,0.00,,,0.00,Wunderground v.1.15,2013-05-08 02:25:00,
2013-05-07 21:30:00,70.6,56.0,29.97,ESE,123,0.0,0.0,60,0.00,,,0.00,Wunderground v.1.15,2013-05-08 02:30:00,
2013-05-07 21:40:00,70.3,56.7,29.97,ESE,110,0.0,1.0,62,0.00,,,0.00,Wunderground v.1.15,2013-05-08 02:40:00,
2013-05-07 21:50:00,70.9,56.8,29.97,SE,127,0.0,0.0,61,0.00,,,0.00,Wunderground v.1.15,2013-05-08 02:50:00,
2013-05-07 22:00:00,71.8,57.2,29.97,ESE,117,0.0,1.0,60,0.00,,,0.00,Wunderground v.1.15,2013-05-08 03:00:00,
2013-05-07 22:10:00,72.0,57.8,29.98,ESE,117,0.0,0.0,61,0.00,,,0.00,Wunderground v.1.15,2013-05-08 03:10:00,
2013-05-07 22:19:00,72.2,57.5,29.98,ESE,122,0.0,0.0,60,0.00,,,0.00,Wunderground v.1.15,2013-05-08 03:19:00,
2013-05-07 22:25:00,72.2,58.5,29.98,West,267,1.0,1.0,62,0.00,,,0.00,Wunderground v.1.15,2013-05-08 03:25:00,
2013-05-07 22:35:00,72.6,59.3,29.98,SE,134,1.0,1.0,63,0.00,,,0.00,Wunderground v.1.15,2013-05-08 03:35:00,
2013-05-07 22:45:00,72.4,60.0,29.98,SE,131,0.0,1.0,65,0.00,,,0.00,Wunderground v.1.15,2013-05-08 03:45:00,
2013-05-07 22:55:00,72.1,59.7,29.98,ENE,64,0.0,1.0,65,0.00,,,0.00,Wunderground v.1.15,2013-05-08 03:55:00,
2013-05-07 23:05:00,71.8,59.8,29.99,SSE,150,0.0,0.0,66,0.00,,,0.00,Wunderground v.1.15,2013-05-08 04:05:00,
2013-05-07 23:10:00,71.8,60.2,29.99,ESE,113,0.0,0.0,67,0.00,,,0.00,Wunderground v.1.15,2013-05-08 04:10:00,
2013-05-07 23:20:00,71.5,60.4,29.99,SE,131,1.0,1.0,68,0.00,,,0.00,Wunderground v.1.15,2013-05-08 04:20:00,
2013-05-07 23:29:00,71.2,60.5,29.99,ESE,122,1.0,1.0,69,0.00,,,0.00,Wunderground v.1.15,2013-05-08 04:29:00,
2013-05-07 23:35:00,71.0,60.7,29.99,ENE,72,0.0,1.0,70,0.00,,,0.00,Wunderground v.1.15,2013-05-08 04:35:00,
2013-05-07 23:40:00,70.9,60.6,29.99,SSE,153,0.0,0.0,70,0.00,,,0.00,Wunderground v.1.15,2013-05-08 04:40:00,
2013-05-07 23:49:00,70.6,60.7,30.00,ESE,110,1.0,2.0,71,0.00,,,0.00,Wunderground v.1.15,2013-05-08 04:49:00,
2013-05-07 23:55:00,70.4,60.9,30.00,ESE,115,1.0,2.0,72,0.00,,,0.00,Wunderground v.1.15,2013-05-08 04:55:00,